Time;durP1;ratioP1;P1;durP2;ratioP2;P2;SDS_P1;SDS_P2;PMS_P1;PMS_P2;Temp;Humidity;BMP_temperature;BMP_pressure;BME280_temperature;BME280_humidity;BME280_pressure;Samples;Min_cycle;Max_cycle;Signal;HPM_P1;HPM_P2
2023/08/25 00:00:10;;;;;;;3.83;3.50;;;;;;;21.81;92.38;99851.69;5054072;28;20213;-76
2023/08/25 00:02:37;;;;;;;3.33;3.03;;;;;;;21.79;92.97;99845.66;5052723;28;20240;-77
2023/08/25 00:05:06;;;;;;;3.40;3.10;;;;;;;21.87;92.98;99837.13;5053613;28;20583;-76
2023/08/25 00:07:33;;;;;;;4.17;3.30;;;;;;;21.78;93.27;99823.56;5053359;28;20406;-76
2023/08/25 00:10:00;;;;;;;3.73;3.07;;;;;;;21.76;93.63;99814.00;5053577;28;20198;-76
2023/08/25 00:12:27;;;;;;;3.50;3.20;;;;;;;21.75;93.52;99814.97;5052745;28;20767;-77
2023/08/25 00:14:54;;;;;;;3.60;3.30;;;;;;;21.73;93.21;99817.75;5053588;28;20212;-77
2023/08/25 00:17:21;;;;;;;3.77;3.43;;;;;;;21.78;93.14;99817.38;5052625;28;20232;-77
2023/08/25 00:19:47;;;;;;;10.37;3.57;;;;;;;21.65;93.59;99809.50;5052915;28;20718;-77
2023/08/25 00:22:14;;;;;;;3.27;3.07;;;;;;;21.63;93.93;99789.34;5053288;28;20234;-77
2023/08/25 00:24:43;;;;;;;7.70;3.30;;;;;;;21.59;94.10;99794.88;5052700;28;20212;-77
2023/08/25 00:27:10;;;;;;;3.50;3.20;;;;;;;21.58;94.02;99792.31;5052404;28;20226;-77
2023/08/25 00:29:38;;;;;;;4.50;3.30;;;;;;;21.60;94.34;99785.09;5053087;28;20209;-77
2023/08/25 00:32:05;;;;;;;3.97;3.57;;;;;;;21.60;94.48;99775.34;5052256;28;20226;-78
2023/08/25 00:34:32;;;;;;;5.27;3.77;;;;;;;21.59;94.69;99770.13;5052824;28;20545;-77
2023/08/25 00:36:59;;;;;;;5.60;3.40;;;;;;;21.59;94.63;99765.66;5053482;28;20209;-77
2023/08/25 00:39:25;;;;;;;4.90;3.23;;;;;;;21.57;94.59;99770.25;5053215;28;20259;-77
2023/08/25 00:41:54;;;;;;;3.13;2.93;;;;;;;21.58;94.85;99760.44;5048644;28;20232;-78
2023/08/25 00:44:21;;;;;;;5.37;3.30;;;;;;;21.62;94.80;99753.94;5074669;28;20209;-78
2023/08/25 00:46:49;;;;;;;4.70;3.00;;;;;;;21.58;94.62;99752.47;5073872;28;20212;-78
2023/08/25 00:49:16;;;;;;;3.93;2.67;;;;;;;21.58;93.26;99768.41;5073212;28;20229;-77
2023/08/25 00:51:43;;;;;;;3.00;2.80;;;;;;;21.58;92.97;99784.34;5052740;28;20248;-77
2023/08/25 00:54:09;;;;;;;3.67;3.37;;;;;;;21.55;93.83;99773.97;5052086;28;20305;-77
2023/08/25 00:56:36;;;;;;;3.53;3.23;;;;;;;21.56;94.03;99759.72;5052703;28;20209;-77
2023/08/25 00:59:04;;;;;;;4.10;3.43;;;;;;;21.53;93.53;99766.13;5052696;28;20300;-78
2023/08/25 01:01:31;;;;;;;3.33;3.13;;;;;;;21.62;93.66;99764.56;5052187;28;20632;-77
2023/08/25 01:03:59;;;;;;;4.50;3.03;;;;;;;21.61;93.88;99762.88;5051827;28;20221;-77
2023/08/25 01:06:26;;;;;;;3.13;2.93;;;;;;;21.60;93.93;99759.41;5052269;28;20224;-77
2023/08/25 01:08:53;;;;;;;3.43;2.73;;;;;;;21.58;92.46;99773.72;5051676;28;20288;-77
2023/08/25 01:11:31;;;;;;;3.10;2.77;;;;;;;21.59;91.28;99794.88;5051985;28;20205;-77
2023/08/25 01:14:08;;;;;;;3.37;3.13;;;;;;;21.58;91.60;99795.81;5052278;28;20201;-77
2023/08/25 01:16:38;;;;;;;4.63;3.10;;;;;;;21.63;92.56;99773.41;5051799;28;20632;-77
2023/08/25 01:19:26;;;;;;;3.17;2.97;;;;;;;21.68;93.14;99764.09;5051890;28;20211;-77
2023/08/25 01:21:59;;;;;;;5.97;2.77;;;;;;;21.63;92.90;99758.31;5051989;28;20225;-77
2023/08/25 01:24:30;;;;;;;3.97;2.60;;;;;;;21.61;93.18;99754.94;5051838;28;20225;-77
2023/08/25 01:26:59;;;;;;;2.63;2.43;;;;;;;21.61;93.53;99739.81;5051670;28;20204;-77
2023/08/25 01:29:25;;;;;;;4.20;2.77;;;;;;;21.62;93.63;99735.34;5051940;28;20209;-77
2023/08/25 01:31:52;;;;;;;9.07;2.87;;;;;;;21.64;93.65;99729.94;5051654;28;20225;-77
2023/08/25 01:34:19;;;;;;;2.93;2.73;;;;;;;21.64;92.51;99740.56;5051500;28;20226;-77
2023/08/25 01:36:54;;;;;;;2.53;2.33;;;;;;;21.66;92.35;99738.63;5051725;28;20292;-77
2023/08/25 01:39:23;;;;;;;3.67;2.60;;;;;;;21.68;92.11;99732.22;5051553;28;20208;-77
2023/08/25 01:41:56;;;;;;;4.17;2.73;;;;;;;21.70;91.04;99746.22;5051119;28;20235;-77
2023/08/25 01:44:26;;;;;;;3.83;2.67;;;;;;;21.76;91.21;99737.81;5051576;28;20267;-77
2023/08/25 01:46:59;;;;;;;2.53;2.37;;;;;;;21.73;91.49;99737.19;5051895;28;20201;-77
2023/08/25 01:49:27;;;;;;;3.00;2.80;;;;;;;21.68;92.64;99731.38;5051806;28;20549;-77
2023/08/25 01:51:55;;;;;;;5.17;2.50;;;;;;;21.60;90.58;99756.75;5051473;28;20573;-77
2023/08/25 01:54:21;;;;;;;4.10;2.73;;;;;;;21.59;91.03;99768.31;5051185;28;20211;-77
2023/08/25 01:56:48;;;;;;;5.83;2.10;;;;;;;21.64;91.63;99744.03;5050948;28;20212;-77
2023/08/25 01:59:15;;;;;;;3.23;2.33;;;;;;;21.63;92.33;99715.81;5051888;28;20205;-77
2023/08/25 02:01:43;;;;;;;3.00;2.50;;;;;;;21.68;92.64;99699.50;5051032;28;20316;-77
2023/08/25 02:04:09;;;;;;;4.50;2.87;;;;;;;21.62;93.20;99695.50;5051100;28;20240;-77
2023/08/25 02:06:36;;;;;;;2.60;2.40;;;;;;;21.59;88.81;99735.59;5051316;28;20664;-77
2023/08/25 02:09:03;;;;;;;3.15;2.42;;;;;;;21.64;90.61;99738.72;5050279;28;20443;-77
2023/08/25 02:11:30;;;;;;;5.60;2.80;;;;;;;21.67;91.35;99729.72;5050959;28;20209;-77
2023/08/25 02:13:56;;;;;;;3.73;2.10;;;;;;;21.70;91.76;99722.31;5051393;28;20209;-77
2023/08/25 02:16:23;;;;;;;5.80;2.17;;;;;;;21.66;90.65;99744.78;5051434;28;20212;-78
2023/08/25 02:18:51;;;;;;;2.53;2.27;;;;;;;21.67;87.63;99793.47;5054495;28;20215;-77
2023/08/25 02:21:18;;;;;;;1.90;1.80;;;;;;;21.69;88.06;99826.91;5055473;28;20309;-77
2023/08/25 02:23:45;;;;;;;2.93;2.20;;;;;;;21.76;88.66;99821.97;5054787;28;20236;-77
2023/08/25 02:26:11;;;;;;;4.07;2.67;;;;;;;21.68;89.16;99811.06;5055874;28;20575;-78
2023/08/25 02:28:38;;;;;;;3.57;2.50;;;;;;;21.68;89.92;99792.47;5056121;28;20209;-77
2023/08/25 02:31:05;;;;;;;2.10;1.87;;;;;;;21.70;89.10;99793.22;5055508;28;20675;-78
2023/08/25 02:33:31;;;;;;;2.13;2.00;;;;;;;21.25;85.91;99865.53;5054688;28;20567;-77
2023/08/25 02:35:59;;;;;;;2.23;1.83;;;;;;;21.24;86.64;99869.13;5055280;28;20291;-76
2023/08/25 02:38:26;;;;;;;4.80;2.07;;;;;;;21.34;89.30;99811.75;5054638;28;20218;-78
2023/08/25 02:40:52;;;;;;;2.90;1.97;;;;;;;21.45;89.46;99797.72;5054576;28;20629;-77
2023/08/25 02:43:19;;;;;;;1.90;1.80;;;;;;;21.52;89.87;99783.00;5055234;28;20230;-78
2023/08/25 02:45:45;;;;;;;3.33;2.50;;;;;;;21.52;90.68;99760.91;5055233;28;20205;-77
2023/08/25 02:48:12;;;;;;;6.50;2.00;;;;;;;21.53;91.08;99747.53;5054441;28;20205;-77
2023/08/25 02:50:38;;;;;;;2.37;2.13;;;;;;;21.34;88.65;99771.91;5054570;28;20216;-77
2023/08/25 02:53:06;;;;;;;1.73;1.60;;;;;;;21.27;88.89;99794.59;5054641;28;20224;-77
2023/08/25 02:55:33;;;;;;;2.63;1.90;;;;;;;21.25;88.01;99798.31;5054969;28;20296;-76
2023/08/25 02:57:59;;;;;;;2.70;2.27;;;;;;;21.14;91.21;99761.94;5054463;28;20202;-77
2023/08/25 03:00:26;;;;;;;2.03;1.93;;;;;;;21.12;91.47;99727.56;5054666;28;20217;-77
2023/08/25 03:02:53;;;;;;;2.20;2.00;;;;;;;21.18;91.66;99723.59;5054095;28;20228;-77
2023/08/25 03:05:21;;;;;;;5.83;2.43;;;;;;;21.13;90.82;99733.69;5054604;28;20210;-76
2023/08/25 03:07:48;;;;;;;3.87;2.20;;;;;;;21.16;91.83;99715.75;5054261;28;20293;-77
2023/08/25 03:10:16;;;;;;;2.23;2.00;;;;;;;21.23;91.64;99708.19;5054513;28;20208;-77
2023/08/25 03:12:43;;;;;;;4.00;3.10;;;;;;;21.11;90.04;99730.31;5053918;28;20708;-77
2023/08/25 03:15:10;;;;;;;6.37;2.30;;;;;;;21.15;90.32;99743.25;5054360;28;20228;-76
2023/08/25 03:17:37;;;;;;;3.80;2.70;;;;;;;21.21;89.55;99749.94;5053796;28;20201;-77
2023/08/25 03:20:05;;;;;;;2.70;2.00;;;;;;;21.27;90.18;99745.94;5054573;28;20263;-77
2023/08/25 03:22:31;;;;;;;2.43;2.00;;;;;;;21.27;90.31;99740.63;5054089;28;20233;-77
2023/08/25 03:24:58;;;;;;;3.57;2.07;;;;;;;21.23;90.49;99735.56;5053961;28;20734;-77
2023/08/25 03:27:27;;;;;;;4.03;2.87;;;;;;;21.20;90.64;99732.28;5053879;28;20292;-77
2023/08/25 03:29:53;;;;;;;2.57;2.07;;;;;;;21.21;90.24;99749.94;5052566;28;20579;-77
2023/08/25 03:32:20;;;;;;;3.67;2.30;;;;;;;21.19;90.27;99736.75;5053433;28;20242;-77
2023/08/25 03:34:47;;;;;;;3.07;2.20;;;;;;;21.20;90.71;99743.75;5054071;28;20359;-77
2023/08/25 03:37:13;;;;;;;2.67;2.30;;;;;;;21.18;90.81;99740.38;5053995;28;20209;-76
2023/08/25 03:39:40;;;;;;;3.07;2.87;;;;;;;20.77;89.83;99767.28;5053770;28;20215;-77
2023/08/25 03:42:07;;;;;;;3.30;2.60;;;;;;;20.92;89.50;99763.53;5045448;28;20308;-76
2023/08/25 03:44:35;;;;;;;2.63;2.50;;;;;;;20.84;89.79;99771.19;5053622;28;20236;-77
2023/08/25 03:47:01;;;;;;;2.73;2.53;;;;;;;20.73;90.68;99758.72;5053268;28;20202;-77
2023/08/25 03:49:30;;;;;;;3.33;3.03;;;;;;;20.81;91.58;99736.91;5053596;28;20682;-76
2023/08/25 03:51:58;;;;;;;4.13;2.10;;;;;;;20.89;92.38;99721.31;5053363;28;20242;-77
2023/08/25 03:54:25;;;;;;;2.87;2.67;;;;;;;20.87;91.71;99725.88;5053820;28;20203;-77
2023/08/25 03:56:51;;;;;;;8.27;2.53;;;;;;;20.89;91.60;99723.09;5053395;28;20205;-77
2023/08/25 03:59:18;;;;;;;3.27;2.70;;;;;;;20.68;91.92;99733.47;5053830;28;20224;-77
2023/08/25 04:01:46;;;;;;;3.23;2.80;;;;;;;20.60;92.38;99732.22;5053333;28;20233;-77
2023/08/25 04:04:13;;;;;;;5.73;2.83;;;;;;;20.57;93.38;99705.03;5053074;28;20225;-77
2023/08/25 04:06:39;;;;;;;8.33;2.50;;;;;;;20.40;95.31;99685.06;5053334;28;20210;-77
2023/08/25 04:09:06;;;;;;;2.47;2.23;;;;;;;20.39;97.19;99627.69;5053347;28;20202;-77
2023/08/25 04:11:32;;;;;;;4.77;2.63;;;;;;;20.38;97.61;99616.25;5053075;28;20693;-76
2023/08/25 04:13:59;;;;;;;3.07;2.50;;;;;;;20.43;98.18;99607.94;5053063;28;20216;-77
2023/08/25 04:16:26;;;;;;;4.63;2.67;;;;;;;20.46;97.16;99622.81;5053393;28;20247;-77
2023/08/25 04:18:54;;;;;;;2.23;2.13;;;;;;;20.44;97.65;99618.44;5052825;28;20233;-77
2023/08/25 04:21:20;;;;;;;4.13;3.07;;;;;;;20.54;97.96;99620.44;5052919;28;20271;-77
2023/08/25 04:23:47;;;;;;;3.23;2.73;;;;;;;20.44;97.26;99622.91;5052746;28;20489;-77
2023/08/25 04:26:13;;;;;;;2.57;2.37;;;;;;;20.56;97.52;99619.34;5052966;28;20210;-77
2023/08/25 04:28:40;;;;;;;3.53;2.87;;;;;;;20.53;97.44;99630.16;5052877;28;20205;-77
2023/08/25 04:31:06;;;;;;;4.57;2.40;;;;;;;20.58;97.53;99629.84;5053007;28;20208;-77
2023/08/25 04:33:33;;;;;;;2.87;2.67;;;;;;;20.58;96.96;99624.53;5052662;28;20224;-77
2023/08/25 04:36:03;;;;;;;4.20;2.80;;;;;;;20.62;96.75;99634.00;5052877;28;20198;-77
2023/08/25 04:38:29;;;;;;;2.70;2.17;;;;;;;20.59;96.70;99626.25;5052450;28;20197;-77
2023/08/25 04:40:56;;;;;;;2.80;2.60;;;;;;;20.63;95.96;99633.91;5051843;28;20198;-77
2023/08/25 04:43:23;;;;;;;3.40;2.80;;;;;;;20.66;95.63;99643.41;5052804;28;20233;-77
2023/08/25 04:45:49;;;;;;;2.80;2.60;;;;;;;20.71;95.62;99646.56;5052809;28;20204;-77
2023/08/25 04:48:16;;;;;;;2.93;2.73;;;;;;;20.77;95.62;99642.63;5052154;28;20201;-77
2023/08/25 04:50:42;;;;;;;2.83;2.63;;;;;;;20.75;95.53;99649.84;5052607;28;20212;-77
2023/08/25 04:53:10;;;;;;;2.90;2.70;;;;;;;20.73;95.40;99655.28;5052008;28;20663;-77
2023/08/25 04:55:37;;;;;;;3.77;2.40;;;;;;;20.73;95.98;99660.59;5052825;28;20210;-77
2023/08/25 04:58:04;;;;;;;2.90;2.70;;;;;;;20.77;95.76;99655.88;5051726;28;20201;-77
2023/08/25 05:00:30;;;;;;;2.83;2.63;;;;;;;20.80;95.48;99655.66;5052410;28;20201;-76
2023/08/25 05:02:57;;;;;;;2.73;2.40;;;;;;;20.86;95.19;99665.81;5051695;28;20634;-77
2023/08/25 05:05:24;;;;;;;3.20;2.40;;;;;;;20.88;94.95;99671.00;5052321;28;20229;-77
2023/08/25 05:07:50;;;;;;;2.40;2.20;;;;;;;20.85;95.18;99676.53;5051787;28;20202;-77
2023/08/25 05:10:18;;;;;;;2.43;2.30;;;;;;;20.82;95.49;99667.84;5051909;28;20205;-77
2023/08/25 05:12:45;;;;;;;2.50;1.90;;;;;;;20.82;95.18;99669.66;5052196;28;20237;-77
2023/08/25 05:15:12;;;;;;;2.50;2.30;;;;;;;20.81;95.12;99668.81;5052196;28;20250;-77
2023/08/25 05:17:38;;;;;;;3.00;2.20;;;;;;;20.80;95.19;99672.41;5052172;28;20201;-77
2023/08/25 05:20:09;;;;;;;2.60;2.40;;;;;;;20.78;94.99;99670.84;5052828;28;20216;-77
2023/08/25 05:22:37;;;;;;;2.50;2.27;;;;;;;20.68;94.97;99659.22;5057664;28;20224;-77
2023/08/25 05:25:06;;;;;;;3.03;2.83;;;;;;;20.67;96.08;99655.69;5071838;28;20225;-77
2023/08/25 05:27:34;;;;;;;2.57;2.37;;;;;;;20.73;96.22;99638.50;5071092;28;20205;-77
2023/08/25 05:30:01;;;;;;;6.37;2.47;;;;;;;20.73;96.61;99639.38;5071599;28;20207;-77
2023/08/25 05:32:27;;;;;;;2.97;2.67;;;;;;;20.73;96.60;99644.66;5051357;28;20327;-77
2023/08/25 05:34:54;;;;;;;2.90;2.70;;;;;;;20.74;96.74;99637.56;5051817;28;20216;-77
2023/08/25 05:37:21;;;;;;;2.73;2.23;;;;;;;20.75;96.59;99633.94;5051852;28;20225;-77
2023/08/25 05:39:47;;;;;;;2.13;1.97;;;;;;;20.79;96.67;99638.91;5051344;28;20233;-77
2023/08/25 05:42:14;;;;;;;2.00;1.90;;;;;;;20.70;94.71;99655.50;5050751;28;20703;-77
2023/08/25 05:44:43;;;;;;;2.17;1.83;;;;;;;20.75;96.42;99647.19;5051698;28;20229;-77
2023/08/25 05:47:10;;;;;;;4.20;2.63;;;;;;;20.69;96.38;99650.28;5050738;28;20212;-77
2023/08/25 05:49:36;;;;;;;3.10;2.10;;;;;;;20.74;96.24;99664.06;5052362;28;20568;-77
2023/08/25 05:52:03;;;;;;;2.83;2.60;;;;;;;20.78;95.86;99665.53;5052152;28;20312;-78
2023/08/25 05:54:30;;;;;;;2.97;2.70;;;;;;;20.75;93.44;99682.53;5052878;28;20235;-77
2023/08/25 05:56:58;;;;;;;5.47;2.57;;;;;;;20.78;93.75;99705.31;5051048;28;20220;-75
2023/08/25 05:59:25;;;;;;;2.93;2.67;;;;;;;20.80;93.54;99728.13;5051283;28;20687;-75
2023/08/25 06:01:53;;;;;;;2.87;2.60;;;;;;;20.81;93.49;99740.44;5050215;28;20225;-75
2023/08/25 06:04:20;;;;;;;4.80;2.87;;;;;;;20.85;93.93;99726.94;5050798;28;20225;-75
2023/08/25 06:06:46;;;;;;;3.00;2.47;;;;;;;20.80;93.00;99752.00;5051426;28;20199;-75
2023/08/25 06:09:14;;;;;;;5.10;2.83;;;;;;;20.85;93.25;99748.16;5050890;28;20209;-75
2023/08/25 06:11:40;;;;;;;3.03;2.60;;;;;;;20.89;91.89;99760.25;5049053;28;20244;-75
2023/08/25 06:14:07;;;;;;;5.73;2.90;;;;;;;20.96;93.46;99741.09;5051136;28;20216;-75
2023/08/25 06:16:33;;;;;;;3.03;2.73;;;;;;;21.00;92.65;99757.66;5050659;28;20213;-75
2023/08/25 06:19:02;;;;;;;4.97;2.47;;;;;;;21.03;92.98;99752.97;5050932;28;20197;-75
2023/08/25 06:21:30;;;;;;;3.07;2.80;;;;;;;21.03;93.24;99747.66;5050684;28;20205;-75
2023/08/25 06:23:56;;;;;;;3.60;3.00;;;;;;;21.01;93.46;99746.09;5050677;28;20209;-75
2023/08/25 06:26:23;;;;;;;2.93;2.73;;;;;;;21.08;92.99;99741.16;5051010;28;20213;-75
2023/08/25 06:28:51;;;;;;;3.13;2.67;;;;;;;21.12;94.17;99714.28;5050944;28;20205;-75
2023/08/25 06:31:17;;;;;;;3.20;2.97;;;;;;;21.15;94.35;99698.16;5050458;28;20566;-75
2023/08/25 06:33:44;;;;;;;2.90;2.70;;;;;;;21.15;94.84;99700.78;5050591;28;20205;-75
2023/08/25 06:36:12;;;;;;;3.30;2.73;;;;;;;21.29;94.91;99688.28;5050806;28;20691;-75
2023/08/25 06:38:39;;;;;;;3.50;3.20;;;;;;;21.55;95.50;99662.44;5050711;28;20197;-75
2023/08/25 06:41:05;;;;;;;2.50;2.33;;;;;;;21.73;94.83;99674.28;5047331;28;20741;-75
2023/08/25 06:43:32;;;;;;;2.67;2.47;;;;;;;21.73;92.14;99729.22;5042179;28;20561;-75
2023/08/25 06:45:59;;;;;;;3.07;2.83;;;;;;;21.83;92.33;99732.88;5043619;28;20695;-75
2023/08/25 06:48:25;;;;;;;5.70;3.87;;;;;;;21.66;91.49;99757.22;5043842;28;20200;-76
2023/08/25 06:50:52;;;;;;;4.73;3.47;;;;;;;21.78;91.28;99764.25;5045843;28;20205;-76
2023/08/25 06:53:20;;;;;;;4.63;3.30;;;;;;;21.74;91.26;99773.41;5050539;28;20226;-76
2023/08/25 06:55:46;;;;;;;4.00;2.97;;;;;;;21.68;89.90;99785.34;5050590;28;20202;-76
2023/08/25 06:58:13;;;;;;;4.10;3.03;;;;;;;21.71;90.09;99787.78;5050674;28;20641;-76
2023/08/25 07:00:39;;;;;;;3.77;3.37;;;;;;;21.79;89.46;99785.38;5050451;28;20209;-77
2023/08/25 07:03:07;;;;;;;3.40;3.10;;;;;;;21.71;87.22;99826.78;5051122;28;20236;-77
2023/08/25 07:05:37;;;;;;;3.07;2.80;;;;;;;21.83;86.48;99848.94;5054368;28;20225;-77
2023/08/25 07:08:05;;;;;;;3.00;2.80;;;;;;;21.95;86.69;99858.63;5054117;28;20215;-76
2023/08/25 07:10:34;;;;;;;5.20;3.10;;;;;;;21.94;88.00;99838.31;5054269;28;20208;-76
2023/08/25 07:13:01;;;;;;;3.73;3.37;;;;;;;21.94;88.69;99817.94;5054425;28;20614;-76
2023/08/25 07:15:27;;;;;;;3.23;2.73;;;;;;;21.89;86.26;99824.56;5054464;28;20194;-76
2023/08/25 07:17:54;;;;;;;3.53;2.57;;;;;;;21.96;85.62;99853.22;5054177;28;20208;-77
2023/08/25 07:20:21;;;;;;;3.47;3.17;;;;;;;22.00;87.24;99822.78;5054263;28;20207;-75
2023/08/25 07:22:47;;;;;;;3.43;2.97;;;;;;;21.92;84.39;99862.38;5053928;28;20630;-76
2023/08/25 07:25:14;;;;;;;6.97;3.20;;;;;;;21.98;84.78;99871.66;5054039;28;20235;-76
2023/08/25 07:27:42;;;;;;;3.40;2.87;;;;;;;22.10;85.07;99870.75;5054119;28;20202;-76
2023/08/25 07:30:09;;;;;;;2.73;2.60;;;;;;;22.12;85.67;99854.69;5054108;28;20209;-77
2023/08/25 07:32:35;;;;;;;5.37;3.17;;;;;;;22.20;82.40;99910.78;5053277;28;20221;-76
2023/08/25 07:35:03;;;;;;;3.37;2.60;;;;;;;22.27;81.63;99930.66;5053907;28;20300;-76
2023/08/25 07:37:29;;;;;;;3.97;2.67;;;;;;;22.28;82.12;99966.06;5053844;28;20302;-77
2023/08/25 07:39:56;;;;;;;2.63;2.43;;;;;;;22.35;83.79;99948.69;5053598;28;20198;-77
2023/08/25 07:42:23;;;;;;;3.03;2.73;;;;;;;22.44;84.75;99910.75;5053723;28;20711;-77
2023/08/25 07:44:51;;;;;;;3.87;2.90;;;;;;;22.47;83.09;99929.13;5054196;28;20229;-76
2023/08/25 07:47:18;;;;;;;2.90;2.70;;;;;;;22.45;81.02;99986.06;5052834;28;20652;-77
2023/08/25 07:49:44;;;;;;;3.03;2.40;;;;;;;22.47;82.66;99965.50;5053639;28;20236;-77
2023/08/25 07:52:14;;;;;;;3.90;2.83;;;;;;;22.50;81.60;99971.44;5053922;28;20229;-77
2023/08/25 07:54:42;;;;;;;5.23;3.03;;;;;;;22.52;82.11;99980.16;5053560;28;20212;-77
2023/08/25 07:57:09;;;;;;;2.87;2.67;;;;;;;22.62;82.34;99977.66;5053362;28;20209;-76
2023/08/25 07:59:35;;;;;;;3.90;3.00;;;;;;;22.68;81.94;99982.50;5053669;28;20255;-77
2023/08/25 08:02:05;;;;;;;3.77;2.93;;;;;;;22.80;81.73;99983.38;5052837;28;20298;-77
2023/08/25 08:04:32;;;;;;;2.93;2.70;;;;;;;22.91;83.18;99959.44;5053564;28;20197;-76
2023/08/25 08:07:00;;;;;;;4.40;2.40;;;;;;;22.98;81.67;99983.75;5053898;28;20576;-79
2023/08/25 08:09:27;;;;;;;4.30;2.67;;;;;;;22.90;80.32;100013.63;5054033;28;20209;-79
2023/08/25 08:11:53;;;;;;;2.93;2.73;;;;;;;23.03;80.93;100021.50;5056807;28;20280;-79
2023/08/25 08:14:20;;;;;;;4.07;2.50;;;;;;;22.94;81.10;100001.75;5056802;28;20703;-79
2023/08/25 08:16:47;;;;;;;4.63;2.90;;;;;;;23.04;81.13;100027.72;5053745;28;20197;-78
2023/08/25 08:19:15;;;;;;;3.83;2.40;;;;;;;23.06;80.62;100012.47;5056039;28;20560;-80
2023/08/25 08:21:42;;;;;;;3.93;3.17;;;;;;;23.10;79.72;100032.56;5058745;28;20326;-78
2023/08/25 08:24:09;;;;;;;3.07;2.70;;;;;;;23.23;80.20;100024.44;5057815;28;20694;-79
2023/08/25 08:26:36;;;;;;;3.00;2.70;;;;;;;23.35;80.67;100013.69;5057882;28;20221;-80
2023/08/25 08:29:03;;;;;;;3.67;2.57;;;;;;;23.47;79.79;100024.31;5059214;28;20236;-81
2023/08/25 08:31:30;;;;;;;5.73;3.37;;;;;;;23.46;77.92;100051.94;5047241;28;20202;-80
2023/08/25 08:33:56;;;;;;;3.80;3.17;;;;;;;23.56;77.62;100072.38;5059163;28;20201;-79
2023/08/25 08:36:24;;;;;;;2.67;2.47;;;;;;;23.70;77.46;100063.28;5059362;28;20202;-81
2023/08/25 08:38:51;;;;;;;2.87;2.67;;;;;;;23.85;77.74;100085.25;5058986;28;20209;-79
2023/08/25 08:41:18;;;;;;;6.17;2.90;;;;;;;23.92;76.47;100088.25;5059171;28;21504;-82
2023/08/25 08:43:46;;;;;;;3.03;2.73;;;;;;;23.87;75.33;100125.13;5056992;28;20205;-81
2023/08/25 08:46:15;;;;;;;6.10;2.70;;;;;;;23.75;75.84;100114.44;5057381;28;20312;-81
2023/08/25 08:48:43;;;;;;;3.00;2.80;;;;;;;23.87;77.44;100101.97;5056323;28;20201;-78
2023/08/25 08:51:10;;;;;;;3.80;2.80;;;;;;;24.02;76.24;100102.53;5055302;28;20761;-78
2023/08/25 08:53:39;;;;;;;4.70;2.60;;;;;;;24.01;75.45;100121.34;5054093;28;20229;-80
2023/08/25 08:56:07;;;;;;;2.70;2.50;;;;;;;23.88;76.64;100118.81;5057246;28;20600;-79
2023/08/25 08:58:34;;;;;;;3.17;2.80;;;;;;;24.10;77.42;100118.78;5054561;28;20209;-77
2023/08/25 09:01:01;;;;;;;3.70;2.90;;;;;;;24.15;76.17;100124.59;5053272;28;20212;-79
2023/08/25 09:03:33;;;;;;;3.43;3.13;;;;;;;24.26;78.15;100083.72;5052449;28;20233;-77
2023/08/25 09:06:03;;;;;;;3.30;3.00;;;;;;;24.30;76.00;100103.84;5055664;28;20222;-80
2023/08/25 09:08:30;;;;;;;3.57;2.97;;;;;;;24.29;75.33;100136.81;5055009;28;20205;-78
2023/08/25 09:11:02;;;;;;;3.73;3.43;;;;;;;24.23;75.87;100139.13;5051647;28;20206;-77
2023/08/25 09:13:31;;;;;;;3.27;3.07;;;;;;;24.36;75.43;100153.16;5052036;28;20239;-78
2023/08/25 09:15:58;;;;;;;3.17;2.97;;;;;;;24.38;75.11;100159.25;5052369;28;20220;-78
2023/08/25 09:18:33;;;;;;;4.13;3.83;;;;;;;24.39;74.75;100153.75;5052144;28;20202;-78
2023/08/25 09:21:01;;;;;;;3.90;3.50;;;;;;;24.50;76.30;100152.03;5052168;28;20201;-78
2023/08/25 09:23:27;;;;;;;4.77;4.37;;;;;;;24.47;75.38;100147.78;5051731;28;20245;-78
2023/08/25 09:25:56;;;;;;;4.70;3.93;;;;;;;24.58;77.46;100120.28;5051651;28;20593;-78
2023/08/25 09:28:27;;;;;;;4.17;3.83;;;;;;;24.63;76.05;100147.41;5052148;28;20305;-78
2023/08/25 09:30:53;;;;;;;3.77;3.47;;;;;;;24.70;75.97;100132.59;5052393;28;20229;-78
2023/08/25 09:33:20;;;;;;;3.90;3.60;;;;;;;24.59;74.95;100156.66;5051943;28;20578;-78
2023/08/25 09:35:46;;;;;;;5.93;4.33;;;;;;;24.71;75.42;100152.13;5051831;28;20205;-77
2023/08/25 09:38:21;;;;;;;4.47;3.13;;;;;;;24.68;75.06;100160.41;5051509;28;20664;-78
2023/08/25 09:40:48;;;;;;;3.93;3.00;;;;;;;24.60;75.38;100152.16;5051356;28;20258;-78
2023/08/25 09:43:14;;;;;;;3.70;3.40;;;;;;;24.68;76.28;100134.53;5052038;28;20405;-78
2023/08/25 09:45:42;;;;;;;3.67;3.47;;;;;;;24.71;76.81;100107.56;5051367;28;20221;-78
2023/08/25 09:48:10;;;;;;;3.67;3.37;;;;;;;24.59;75.26;100151.31;5051459;28;20691;-78
2023/08/25 09:50:38;;;;;;;3.47;2.83;;;;;;;24.55;74.44;100169.38;5051657;28;20217;-78
2023/08/25 09:53:06;;;;;;;3.03;2.73;;;;;;;24.54;75.78;100159.69;5051199;28;20279;-78
2023/08/25 09:55:35;;;;;;;3.57;3.27;;;;;;;24.49;76.59;100143.19;5051501;28;20220;-78
2023/08/25 09:58:02;;;;;;;5.37;2.70;;;;;;;24.53;76.59;100149.16;5051761;28;20288;-78
2023/08/25 10:00:29;;;;;;;4.50;3.07;;;;;;;24.42;76.19;100165.16;5051643;28;20249;-78
2023/08/25 10:02:59;;;;;;;4.43;3.17;;;;;;;24.47;76.09;100137.13;5051610;28;20224;-78
2023/08/25 10:05:26;;;;;;;2.83;2.63;;;;;;;24.46;75.96;100137.25;5052287;28;20328;-78
2023/08/25 10:07:52;;;;;;;3.70;2.90;;;;;;;24.25;78.50;100140.69;5051666;28;20695;-78
2023/08/25 10:10:20;;;;;;;4.40;3.13;;;;;;;24.01;77.88;100130.19;5051869;28;20209;-77
2023/08/25 10:12:49;;;;;;;3.43;3.13;;;;;;;24.15;80.13;100089.91;5050864;28;20222;-78
2023/08/25 10:15:17;;;;;;;3.63;3.30;;;;;;;24.18;82.23;100033.66;5051698;28;20211;-78
2023/08/25 10:17:45;;;;;;;3.17;2.93;;;;;;;24.20;85.16;99969.50;5050689;28;20201;-78
2023/08/25 10:20:14;;;;;;;4.40;3.03;;;;;;;24.22;86.25;99918.72;5051408;28;20309;-79
2023/08/25 10:22:45;;;;;;;3.23;3.03;;;;;;;24.12;88.08;99900.84;5046030;28;20280;-77
2023/08/25 10:25:14;;;;;;;3.30;3.10;;;;;;;23.87;87.75;99858.56;5051424;28;20209;-78
2023/08/25 10:27:41;;;;;;;4.63;3.00;;;;;;;23.78;88.15;99863.69;5050858;28;20202;-78
2023/08/25 10:30:09;;;;;;;2.97;2.77;;;;;;;23.78;87.98;99847.69;5051158;28;20209;-78
2023/08/25 10:32:55;;;;;;;4.23;3.20;;;;;;;23.75;88.79;99845.22;5050415;28;20232;-77
2023/08/25 10:35:46;;;;;;;4.63;3.10;;;;;;;23.75;90.25;99821.25;5050943;28;20576;-78
2023/08/25 10:38:39;;;;;;;3.30;3.00;;;;;;;23.72;91.79;99789.50;5051895;28;20214;-79
2023/08/25 10:41:16;;;;;;;4.40;4.10;;;;;;;23.69;92.82;99744.50;5041246;28;20221;-77
2023/08/25 10:43:48;;;;;;;4.70;3.83;;;;;;;23.65;93.19;99712.91;5055111;28;20205;-78
2023/08/25 10:46:14;;;;;;;5.03;3.90;;;;;;;23.64;92.87;99713.88;5057859;28;20229;-78
2023/08/25 10:48:42;;;;;;;5.40;4.60;;;;;;;22.84;98.86;99660.13;5057785;28;20550;-78
2023/08/25 10:51:13;;;;;;;4.60;4.20;;;;;;;22.68;100.00;99602.03;5057927;28;20212;-78
2023/08/25 10:53:44;;;;;;;5.87;5.20;;;;;;;22.89;100.00;99603.84;5055932;28;20236;-78
2023/08/25 10:56:16;;;;;;;5.27;4.73;;;;;;;22.96;100.00;99621.00;5056539;28;20224;-78
2023/08/25 10:58:43;;;;;;;4.37;3.97;;;;;;;23.10;99.70;99668.66;5055771;28;20219;-78
2023/08/25 11:01:09;;;;;;;4.23;3.83;;;;;;;23.14;99.59;99685.22;5056776;28;20594;-78
2023/08/25 11:04:03;;;;;;;4.87;4.47;;;;;;;23.18;98.13;99718.59;5055329;28;20600;-78
2023/08/25 11:06:45;;;;;;;5.07;4.63;;;;;;;23.12;98.55;99716.44;5056423;28;20227;-77
2023/08/25 11:09:31;;;;;;;3.97;3.60;;;;;;;23.17;97.72;99736.41;5056163;28;20209;-77
2023/08/25 11:12:01;;;;;;;4.73;4.37;;;;;;;23.15;96.66;99729.47;5055888;28;20300;-77
2023/08/25 11:14:29;;;;;;;4.63;3.93;;;;;;;23.13;96.21;99734.97;5057147;28;20220;-78
2023/08/25 11:16:56;;;;;;;5.20;3.67;;;;;;;23.12;97.02;99735.09;5058698;28;20667;-78
2023/08/25 11:19:25;;;;;;;4.70;4.33;;;;;;;23.12;97.70;99695.97;5057671;28;20233;-78
2023/08/25 11:21:59;;;;;;;3.97;3.67;;;;;;;23.10;97.33;99673.97;5058213;28;20221;-78
2023/08/25 11:24:26;;;;;;;4.43;4.03;;;;;;;23.16;99.14;99638.84;5058841;28;20204;-79
2023/08/25 11:26:52;;;;;;;4.20;3.90;;;;;;;23.29;98.79;99644.00;5058624;28;20229;-79
2023/08/25 11:29:19;;;;;;;4.73;4.43;;;;;;;23.33;100.00;99623.25;5059701;28;20215;-79
2023/08/25 11:31:45;;;;;;;4.30;4.00;;;;;;;23.47;100.00;99611.41;5059000;28;20221;-79
2023/08/25 11:34:12;;;;;;;5.03;4.47;;;;;;;23.44;99.40;99641.81;5059255;28;20209;-79